sensor_id;sensor_type;location;lat;lon;timestamp;P1;durP1;ratioP1;P2;durP2;ratioP2
5795;SDS011;2924;51.458;7.046;2023-02-28T00:01:09;5.30;;;4.07;;
5795;SDS011;2924;51.458;7.046;2023-02-28T00:03:36;8.83;;;3.80;;
5795;SDS011;2924;51.458;7.046;2023-02-28T00:06:05;7.70;;;4.23;;
5795;SDS011;2924;51.458;7.046;2023-02-28T00:08:34;5.57;;;3.57;;
5795;SDS011;2924;51.458;7.046;2023-02-28T00:11:02;3.97;;;3.10;;
5795;SDS011;2924;51.458;7.046;2023-02-28T00:13:38;3.03;;;2.83;;
5795;SDS011;2924;51.458;7.046;2023-02-28T00:16:10;4.70;;;3.10;;
5795;SDS011;2924;51.458;7.046;2023-02-28T00:18:38;3.20;;;2.90;;
5795;SDS011;2924;51.458;7.046;2023-02-28T00:21:03;3.87;;;2.00;;
5795;SDS011;2924;51.458;7.046;2023-02-28T00:23:30;4.53;;;2.03;;
5795;SDS011;2924;51.458;7.046;2023-02-28T00:25:55;4.53;;;2.50;;
5795;SDS011;2924;51.458;7.046;2023-02-28T00:28:21;2.13;;;1.70;;
5795;SDS011;2924;51.458;7.046;2023-02-28T00:30:47;3.70;;;1.50;;
5795;SDS011;2924;51.458;7.046;2023-02-28T00:33:13;2.20;;;2.00;;
5795;SDS011;2924;51.458;7.046;2023-02-28T00:35:38;7.13;;;2.30;;
5795;SDS011;2924;51.458;7.046;2023-02-28T00:38:04;2.77;;;2.27;;
5795;SDS011;2924;51.458;7.046;2023-02-28T00:40:30;15.20;;;2.30;;
5795;SDS011;2924;51.458;7.046;2023-02-28T00:42:56;3.33;;;3.10;;
5795;SDS011;2924;51.458;7.046;2023-02-28T00:45:22;4.57;;;2.13;;
5795;SDS011;2924;51.458;7.046;2023-02-28T00:47:48;5.13;;;2.30;;
5795;SDS011;2924;51.458;7.046;2023-02-28T00:50:18;4.80;;;2.50;;
5795;SDS011;2924;51.458;7.046;2023-02-28T00:52:44;4.00;;;3.10;;
5795;SDS011;2924;51.458;7.046;2023-02-28T00:55:10;4.40;;;2.90;;
5795;SDS011;2924;51.458;7.046;2023-02-28T00:57:36;2.80;;;2.50;;
5795;SDS011;2924;51.458;7.046;2023-02-28T01:00:02;8.07;;;2.83;;
5795;SDS011;2924;51.458;7.046;2023-02-28T01:02:29;5.60;;;2.60;;
5795;SDS011;2924;51.458;7.046;2023-02-28T01:04:55;8.00;;;3.70;;
5795;SDS011;2924;51.458;7.046;2023-02-28T01:07:21;5.37;;;3.13;;
5795;SDS011;2924;51.458;7.046;2023-02-28T01:09:47;7.53;;;2.80;;
5795;SDS011;2924;51.458;7.046;2023-02-28T01:12:13;4.63;;;2.47;;
5795;SDS011;2924;51.458;7.046;2023-02-28T01:14:39;3.67;;;2.17;;
5795;SDS011;2924;51.458;7.046;2023-02-28T01:17:04;4.90;;;2.40;;
5795;SDS011;2924;51.458;7.046;2023-02-28T01:19:30;6.03;;;2.83;;
5795;SDS011;2924;51.458;7.046;2023-02-28T01:21:56;2.97;;;2.30;;
5795;SDS011;2924;51.458;7.046;2023-02-28T01:24:21;2.23;;;2.03;;
5795;SDS011;2924;51.458;7.046;2023-02-28T01:26:47;3.60;;;2.30;;
5795;SDS011;2924;51.458;7.046;2023-02-28T01:29:13;7.53;;;2.70;;
5795;SDS011;2924;51.458;7.046;2023-02-28T01:31:39;3.67;;;2.53;;
5795;SDS011;2924;51.458;7.046;2023-02-28T01:34:05;4.50;;;2.40;;
5795;SDS011;2924;51.458;7.046;2023-02-28T01:36:30;4.23;;;2.50;;
5795;SDS011;2924;51.458;7.046;2023-02-28T01:38:56;2.77;;;1.97;;
5795;SDS011;2924;51.458;7.046;2023-02-28T01:41:23;2.40;;;2.20;;
5795;SDS011;2924;51.458;7.046;2023-02-28T01:43:54;5.40;;;2.10;;
5795;SDS011;2924;51.458;7.046;2023-02-28T01:46:22;2.40;;;1.77;;
5795;SDS011;2924;51.458;7.046;2023-02-28T01:48:50;3.60;;;1.90;;
5795;SDS011;2924;51.458;7.046;2023-02-28T01:52:02;2.20;;;1.90;;
5795;SDS011;2924;51.458;7.046;2023-02-28T01:54:19;5.50;;;2.40;;
5795;SDS011;2924;51.458;7.046;2023-02-28T01:56:54;2.90;;;2.27;;
5795;SDS011;2924;51.458;7.046;2023-02-28T01:59:39;4.27;;;2.27;;
5795;SDS011;2924;51.458;7.046;2023-02-28T02:02:11;6.70;;;2.30;;
5795;SDS011;2924;51.458;7.046;2023-02-28T02:04:46;1.80;;;1.70;;
5795;SDS011;2924;51.458;7.046;2023-02-28T02:07:31;5.80;;;1.97;;
5795;SDS011;2924;51.458;7.046;2023-02-28T02:10:00;1.53;;;1.40;;
5795;SDS011;2924;51.458;7.046;2023-02-28T02:15:30;2.47;;;2.27;;
5795;SDS011;2924;51.458;7.046;2023-02-28T02:18:29;2.27;;;1.90;;
5795;SDS011;2924;51.458;7.046;2023-02-28T02:21:11;2.07;;;1.80;;
5795;SDS011;2924;51.458;7.046;2023-02-28T02:38:14;3.60;;;1.53;;
5795;SDS011;2924;51.458;7.046;2023-02-28T02:46:48;2.10;;;1.50;;
5795;SDS011;2924;51.458;7.046;2023-02-28T02:49:22;2.60;;;2.27;;
5795;SDS011;2924;51.458;7.046;2023-02-28T02:51:52;2.63;;;1.77;;
5795;SDS011;2924;51.458;7.046;2023-02-28T02:54:21;6.43;;;1.90;;
5795;SDS011;2924;51.458;7.046;2023-02-28T02:57:01;3.30;;;1.50;;
5795;SDS011;2924;51.458;7.046;2023-02-28T02:59:33;3.97;;;2.70;;
5795;SDS011;2924;51.458;7.046;2023-02-28T03:02:01;3.63;;;1.87;;
5795;SDS011;2924;51.458;7.046;2023-02-28T03:04:32;2.67;;;1.90;;
5795;SDS011;2924;51.458;7.046;2023-02-28T03:07:03;3.03;;;2.10;;
5795;SDS011;2924;51.458;7.046;2023-02-28T03:09:28;2.03;;;1.83;;
5795;SDS011;2924;51.458;7.046;2023-02-28T03:11:57;5.83;;;2.40;;
5795;SDS011;2924;51.458;7.046;2023-02-28T03:17:11;1.90;;;1.80;;
5795;SDS011;2924;51.458;7.046;2023-02-28T03:22:44;3.93;;;2.17;;
5795;SDS011;2924;51.458;7.046;2023-02-28T03:28:08;2.50;;;1.60;;
5795;SDS011;2924;51.458;7.046;2023-02-28T03:33:59;1.87;;;1.73;;
5795;SDS011;2924;51.458;7.046;2023-02-28T03:36:38;4.83;;;2.30;;
5795;SDS011;2924;51.458;7.046;2023-02-28T03:39:14;5.50;;;2.57;;
5795;SDS011;2924;51.458;7.046;2023-02-28T03:41:51;1.90;;;1.40;;
5795;SDS011;2924;51.458;7.046;2023-02-28T03:44:24;2.27;;;2.07;;
5795;SDS011;2924;51.458;7.046;2023-02-28T03:47:09;3.43;;;1.67;;
5795;SDS011;2924;51.458;7.046;2023-02-28T03:50:25;4.30;;;1.80;;
5795;SDS011;2924;51.458;7.046;2023-02-28T03:52:33;2.17;;;1.47;;
5795;SDS011;2924;51.458;7.046;2023-02-28T03:55:03;1.57;;;1.47;;
5795;SDS011;2924;51.458;7.046;2023-02-28T03:57:39;1.73;;;1.30;;
5795;SDS011;2924;51.458;7.046;2023-02-28T04:00:12;2.43;;;2.00;;
5795;SDS011;2924;51.458;7.046;2023-02-28T04:02:43;2.20;;;1.70;;
5795;SDS011;2924;51.458;7.046;2023-02-28T04:05:09;2.60;;;1.40;;
5795;SDS011;2924;51.458;7.046;2023-02-28T04:07:35;2.60;;;1.50;;
5795;SDS011;2924;51.458;7.046;2023-02-28T04:10:00;3.63;;;2.07;;
5795;SDS011;2924;51.458;7.046;2023-02-28T04:12:26;1.10;;;1.10;;
5795;SDS011;2924;51.458;7.046;2023-02-28T04:14:52;3.57;;;1.60;;
5795;SDS011;2924;51.458;7.046;2023-02-28T04:17:17;2.50;;;1.27;;
5795;SDS011;2924;51.458;7.046;2023-02-28T04:19:43;7.20;;;2.50;;
5795;SDS011;2924;51.458;7.046;2023-02-28T04:22:09;3.87;;;2.50;;
5795;SDS011;2924;51.458;7.046;2023-02-28T04:24:35;5.10;;;1.60;;
5795;SDS011;2924;51.458;7.046;2023-02-28T04:27:02;1.50;;;1.40;;
5795;SDS011;2924;51.458;7.046;2023-02-28T04:29:29;10.93;;;1.93;;
5795;SDS011;2924;51.458;7.046;2023-02-28T04:31:57;2.17;;;2.07;;
5795;SDS011;2924;51.458;7.046;2023-02-28T04:34:27;3.13;;;1.83;;
5795;SDS011;2924;51.458;7.046;2023-02-28T04:36:55;1.47;;;1.37;;
5795;SDS011;2924;51.458;7.046;2023-02-28T04:39:21;2.50;;;1.57;;
5795;SDS011;2924;51.458;7.046;2023-02-28T04:41:48;2.50;;;1.97;;
5795;SDS011;2924;51.458;7.046;2023-02-28T04:44:14;4.53;;;1.57;;
5795;SDS011;2924;51.458;7.046;2023-02-28T04:46:41;3.70;;;1.77;;
5795;SDS011;2924;51.458;7.046;2023-02-28T04:49:07;4.87;;;1.90;;
5795;SDS011;2924;51.458;7.046;2023-02-28T04:51:35;2.60;;;1.90;;
5795;SDS011;2924;51.458;7.046;2023-02-28T04:54:01;3.50;;;1.90;;
5795;SDS011;2924;51.458;7.046;2023-02-28T04:56:26;1.67;;;1.57;;
5795;SDS011;2924;51.458;7.046;2023-02-28T04:58:52;2.40;;;2.13;;
5795;SDS011;2924;51.458;7.046;2023-02-28T05:01:20;2.43;;;1.83;;
5795;SDS011;2924;51.458;7.046;2023-02-28T05:03:48;1.53;;;1.40;;
5795;SDS011;2924;51.458;7.046;2023-02-28T05:06:14;2.37;;;1.27;;
5795;SDS011;2924;51.458;7.046;2023-02-28T05:08:40;2.70;;;1.53;;
5795;SDS011;2924;51.458;7.046;2023-02-28T05:11:08;4.23;;;2.07;;
5795;SDS011;2924;51.458;7.046;2023-02-28T05:13:40;2.77;;;1.60;;
5795;SDS011;2924;51.458;7.046;2023-02-28T05:16:05;3.90;;;1.40;;
5795;SDS011;2924;51.458;7.046;2023-02-28T05:18:31;2.87;;;1.27;;
5795;SDS011;2924;51.458;7.046;2023-02-28T05:20:57;1.93;;;1.80;;
5795;SDS011;2924;51.458;7.046;2023-02-28T05:23:22;1.50;;;1.40;;
5795;SDS011;2924;51.458;7.046;2023-02-28T05:25:48;1.70;;;1.60;;
5795;SDS011;2924;51.458;7.046;2023-02-28T05:28:14;2.83;;;1.53;;
5795;SDS011;2924;51.458;7.046;2023-02-28T05:30:40;2.33;;;1.40;;
5795;SDS011;2924;51.458;7.046;2023-02-28T05:33:05;3.33;;;1.43;;
5795;SDS011;2924;51.458;7.046;2023-02-28T05:35:31;2.57;;;1.40;;
5795;SDS011;2924;51.458;7.046;2023-02-28T05:37:57;2.30;;;1.20;;
5795;SDS011;2924;51.458;7.046;2023-02-28T05:40:23;2.57;;;1.67;;
5795;SDS011;2924;51.458;7.046;2023-02-28T05:42:49;4.73;;;1.20;;
5795;SDS011;2924;51.458;7.046;2023-02-28T05:45:15;1.53;;;1.43;;
5795;SDS011;2924;51.458;7.046;2023-02-28T05:47:42;4.03;;;2.10;;
5795;SDS011;2924;51.458;7.046;2023-02-28T05:50:08;1.07;;;0.90;;
5795;SDS011;2924;51.458;7.046;2023-02-28T05:52:35;1.57;;;1.33;;
5795;SDS011;2924;51.458;7.046;2023-02-28T05:55:01;1.33;;;1.23;;
5795;SDS011;2924;51.458;7.046;2023-02-28T05:57:27;1.50;;;1.40;;
5795;SDS011;2924;51.458;7.046;2023-02-28T05:59:53;13.17;;;1.60;;
5795;SDS011;2924;51.458;7.046;2023-02-28T06:02:18;2.27;;;1.80;;
5795;SDS011;2924;51.458;7.046;2023-02-28T06:04:44;1.97;;;1.40;;
5795;SDS011;2924;51.458;7.046;2023-02-28T06:07:10;3.23;;;1.70;;
5795;SDS011;2924;51.458;7.046;2023-02-28T06:09:36;1.27;;;0.90;;
5795;SDS011;2924;51.458;7.046;2023-02-28T06:12:03;1.50;;;1.40;;
5795;SDS011;2924;51.458;7.046;2023-02-28T06:14:30;4.90;;;2.27;;
5795;SDS011;2924;51.458;7.046;2023-02-28T06:16:58;3.17;;;1.60;;
5795;SDS011;2924;51.458;7.046;2023-02-28T06:19:24;4.00;;;1.67;;
5795;SDS011;2924;51.458;7.046;2023-02-28T06:21:54;1.90;;;1.80;;
5795;SDS011;2924;51.458;7.046;2023-02-28T06:24:20;1.90;;;1.80;;
5795;SDS011;2924;51.458;7.046;2023-02-28T06:26:47;4.20;;;1.73;;
5795;SDS011;2924;51.458;7.046;2023-02-28T06:29:13;2.10;;;1.30;;
5795;SDS011;2924;51.458;7.046;2023-02-28T06:31:42;4.10;;;1.70;;
5795;SDS011;2924;51.458;7.046;2023-02-28T06:34:09;2.47;;;1.97;;
5795;SDS011;2924;51.458;7.046;2023-02-28T06:36:36;5.83;;;1.90;;
5795;SDS011;2924;51.458;7.046;2023-02-28T06:39:03;2.40;;;1.60;;
5795;SDS011;2924;51.458;7.046;2023-02-28T06:41:29;10.13;;;1.40;;
5795;SDS011;2924;51.458;7.046;2023-02-28T06:43:55;2.17;;;1.30;;
5795;SDS011;2924;51.458;7.046;2023-02-28T06:46:21;2.10;;;1.63;;
5795;SDS011;2924;51.458;7.046;2023-02-28T06:48:47;2.50;;;1.50;;
5795;SDS011;2924;51.458;7.046;2023-02-28T06:51:14;1.87;;;1.77;;
5795;SDS011;2924;51.458;7.046;2023-02-28T06:53:42;2.93;;;2.00;;
5795;SDS011;2924;51.458;7.046;2023-02-28T06:56:09;2.73;;;1.73;;
5795;SDS011;2924;51.458;7.046;2023-02-28T06:58:36;3.83;;;2.03;;
5795;SDS011;2924;51.458;7.046;2023-02-28T07:01:04;3.90;;;2.13;;
5795;SDS011;2924;51.458;7.046;2023-02-28T07:03:30;6.03;;;2.30;;
5795;SDS011;2924;51.458;7.046;2023-02-28T07:05:56;1.77;;;1.67;;
5795;SDS011;2924;51.458;7.046;2023-02-28T07:08:23;1.77;;;1.67;;
5795;SDS011;2924;51.458;7.046;2023-02-28T07:10:53;7.20;;;2.10;;
5795;SDS011;2924;51.458;7.046;2023-02-28T07:13:20;4.67;;;2.00;;
5795;SDS011;2924;51.458;7.046;2023-02-28T07:15:55;4.17;;;1.30;;
5795;SDS011;2924;51.458;7.046;2023-02-28T07:18:22;3.53;;;2.20;;
5795;SDS011;2924;51.458;7.046;2023-02-28T07:20:48;5.30;;;1.90;;
5795;SDS011;2924;51.458;7.046;2023-02-28T07:23:14;8.33;;;1.90;;
5795;SDS011;2924;51.458;7.046;2023-02-28T07:25:40;6.60;;;2.00;;
5795;SDS011;2924;51.458;7.046;2023-02-28T07:28:06;3.97;;;1.97;;
5795;SDS011;2924;51.458;7.046;2023-02-28T07:30:31;4.97;;;2.23;;
5795;SDS011;2924;51.458;7.046;2023-02-28T07:32:57;5.73;;;1.50;;
5795;SDS011;2924;51.458;7.046;2023-02-28T07:35:22;4.40;;;2.10;;
5795;SDS011;2924;51.458;7.046;2023-02-28T07:37:48;3.47;;;2.30;;
5795;SDS011;2924;51.458;7.046;2023-02-28T07:40:14;12.83;;;2.03;;
5795;SDS011;2924;51.458;7.046;2023-02-28T07:42:40;6.53;;;1.53;;
5795;SDS011;2924;51.458;7.046;2023-02-28T07:45:07;6.53;;;1.60;;
5795;SDS011;2924;51.458;7.046;2023-02-28T07:47:36;6.53;;;1.60;;
5795;SDS011;2924;51.458;7.046;2023-02-28T07:50:07;1.60;;;1.50;;
5795;SDS011;2924;51.458;7.046;2023-02-28T07:52:36;5.07;;;2.40;;
5795;SDS011;2924;51.458;7.046;2023-02-28T07:55:03;7.10;;;2.43;;
5795;SDS011;2924;51.458;7.046;2023-02-28T07:57:29;5.27;;;2.90;;
5795;SDS011;2924;51.458;7.046;2023-02-28T07:59:55;6.37;;;3.43;;
5795;SDS011;2924;51.458;7.046;2023-02-28T08:02:20;3.67;;;3.37;;
5795;SDS011;2924;51.458;7.046;2023-02-28T08:04:46;4.73;;;3.67;;
5795;SDS011;2924;51.458;7.046;2023-02-28T08:07:13;3.20;;;2.13;;
5795;SDS011;2924;51.458;7.046;2023-02-28T08:09:39;3.23;;;2.07;;
5795;SDS011;2924;51.458;7.046;2023-02-28T08:12:09;3.67;;;1.63;;
5795;SDS011;2924;51.458;7.046;2023-02-28T08:14:35;3.67;;;2.30;;
5795;SDS011;2924;51.458;7.046;2023-02-28T08:17:01;2.23;;;1.80;;
5795;SDS011;2924;51.458;7.046;2023-02-28T08:19:27;7.13;;;2.40;;
5795;SDS011;2924;51.458;7.046;2023-02-28T08:21:53;4.30;;;1.80;;
5795;SDS011;2924;51.458;7.046;2023-02-28T08:24:20;3.57;;;2.33;;
5795;SDS011;2924;51.458;7.046;2023-02-28T08:26:45;2.80;;;2.03;;
5795;SDS011;2924;51.458;7.046;2023-02-28T08:29:11;3.47;;;2.00;;
5795;SDS011;2924;51.458;7.046;2023-02-28T08:31:36;3.70;;;2.23;;
5795;SDS011;2924;51.458;7.046;2023-02-28T08:34:06;6.33;;;2.33;;
5795;SDS011;2924;51.458;7.046;2023-02-28T08:36:33;9.30;;;3.00;;
5795;SDS011;2924;51.458;7.046;2023-02-28T08:38:59;5.53;;;2.13;;
5795;SDS011;2924;51.458;7.046;2023-02-28T08:41:25;7.43;;;2.83;;
5795;SDS011;2924;51.458;7.046;2023-02-28T08:43:51;5.73;;;2.53;;
5795;SDS011;2924;51.458;7.046;2023-02-28T08:46:18;2.40;;;1.70;;
5795;SDS011;2924;51.458;7.046;2023-02-28T08:48:44;9.83;;;2.77;;
5795;SDS011;2924;51.458;7.046;2023-02-28T08:51:12;3.93;;;1.83;;
5795;SDS011;2924;51.458;7.046;2023-02-28T08:53:46;3.17;;;1.90;;
5795;SDS011;2924;51.458;7.046;2023-02-28T08:56:14;4.10;;;1.80;;
5795;SDS011;2924;51.458;7.046;2023-02-28T08:58:41;5.50;;;2.13;;
5795;SDS011;2924;51.458;7.046;2023-02-28T09:01:24;7.00;;;1.77;;
5795;SDS011;2924;51.458;7.046;2023-02-28T09:03:52;2.53;;;2.00;;
5795;SDS011;2924;51.458;7.046;2023-02-28T09:06:19;2.37;;;1.80;;
5795;SDS011;2924;51.458;7.046;2023-02-28T09:08:46;3.73;;;1.77;;
5795;SDS011;2924;51.458;7.046;2023-02-28T09:11:11;6.73;;;1.93;;
5795;SDS011;2924;51.458;7.046;2023-02-28T09:13:38;2.13;;;2.03;;
5795;SDS011;2924;51.458;7.046;2023-02-28T09:16:05;3.33;;;1.77;;
5795;SDS011;2924;51.458;7.046;2023-02-28T09:18:36;1.53;;;1.27;;
5795;SDS011;2924;51.458;7.046;2023-02-28T09:21:12;1.77;;;1.67;;
5795;SDS011;2924;51.458;7.046;2023-02-28T09:23:40;1.90;;;1.53;;
5795;SDS011;2924;51.458;7.046;2023-02-28T09:26:11;1.30;;;1.10;;
5795;SDS011;2924;51.458;7.046;2023-02-28T09:28:45;4.33;;;1.53;;
5795;SDS011;2924;51.458;7.046;2023-02-28T09:31:12;2.83;;;1.83;;
5795;SDS011;2924;51.458;7.046;2023-02-28T09:33:39;2.43;;;1.50;;
5795;SDS011;2924;51.458;7.046;2023-02-28T09:36:05;5.80;;;1.50;;
5795;SDS011;2924;51.458;7.046;2023-02-28T09:38:31;2.50;;;1.80;;
5795;SDS011;2924;51.458;7.046;2023-02-28T09:40:58;5.30;;;2.30;;
5795;SDS011;2924;51.458;7.046;2023-02-28T09:43:27;3.43;;;1.47;;
5795;SDS011;2924;51.458;7.046;2023-02-28T09:48:32;8.40;;;1.17;;
5795;SDS011;2924;51.458;7.046;2023-02-28T09:51:11;3.13;;;1.23;;
5795;SDS011;2924;51.458;7.046;2023-02-28T09:53:38;2.43;;;1.70;;
5795;SDS011;2924;51.458;7.046;2023-02-28T09:56:09;1.10;;;1.00;;
5795;SDS011;2924;51.458;7.046;2023-02-28T09:59:42;3.70;;;1.13;;
5795;SDS011;2924;51.458;7.046;2023-02-28T10:12:58;0.90;;;0.87;;
5795;SDS011;2924;51.458;7.046;2023-02-28T10:15:26;2.67;;;1.40;;
5795;SDS011;2924;51.458;7.046;2023-02-28T10:17:57;2.23;;;1.37;;
5795;SDS011;2924;51.458;7.046;2023-02-28T10:20:27;3.33;;;1.00;;
5795;SDS011;2924;51.458;7.046;2023-02-28T10:25:38;7.43;;;1.40;;
5795;SDS011;2924;51.458;7.046;2023-02-28T10:30:33;1.00;;;1.00;;
5795;SDS011;2924;51.458;7.046;2023-02-28T10:32:59;0.63;;;0.63;;
5795;SDS011;2924;51.458;7.046;2023-02-28T10:35:25;0.97;;;0.97;;
5795;SDS011;2924;51.458;7.046;2023-02-28T10:37:55;2.17;;;1.10;;
5795;SDS011;2924;51.458;7.046;2023-02-28T10:42:55;1.30;;;1.20;;
5795;SDS011;2924;51.458;7.046;2023-02-28T10:45:24;0.97;;;0.97;;
5795;SDS011;2924;51.458;7.046;2023-02-28T10:50:32;0.70;;;0.70;;
5795;SDS011;2924;51.458;7.046;2023-02-28T10:56:24;1.00;;;0.70;;
5795;SDS011;2924;51.458;7.046;2023-02-28T11:01:46;0.90;;;0.90;;
5795;SDS011;2924;51.458;7.046;2023-02-28T11:07:06;0.67;;;0.67;;
5795;SDS011;2924;51.458;7.046;2023-02-28T11:09:49;0.80;;;0.80;;
5795;SDS011;2924;51.458;7.046;2023-02-28T11:12:21;2.40;;;0.90;;
5795;SDS011;2924;51.458;7.046;2023-02-28T11:14:58;1.03;;;0.90;;
5795;SDS011;2924;51.458;7.046;2023-02-28T11:17:30;1.07;;;0.90;;
5795;SDS011;2924;51.458;7.046;2023-02-28T11:20:06;3.80;;;1.50;;
5795;SDS011;2924;51.458;7.046;2023-02-28T11:22:45;1.50;;;1.10;;
5795;SDS011;2924;51.458;7.046;2023-02-28T11:27:57;2.00;;;0.80;;
5795;SDS011;2924;51.458;7.046;2023-02-28T11:30:31;1.50;;;0.87;;
5795;SDS011;2924;51.458;7.046;2023-02-28T11:33:23;3.20;;;1.07;;
5795;SDS011;2924;51.458;7.046;2023-02-28T11:36:01;1.53;;;0.80;;
5795;SDS011;2924;51.458;7.046;2023-02-28T11:38:34;2.10;;;1.20;;
5795;SDS011;2924;51.458;7.046;2023-02-28T11:41:08;1.10;;;0.93;;
5795;SDS011;2924;51.458;7.046;2023-02-28T11:46:50;0.93;;;0.93;;
5795;SDS011;2924;51.458;7.046;2023-02-28T11:56:55;0.73;;;0.70;;
5795;SDS011;2924;51.458;7.046;2023-02-28T12:07:41;0.90;;;0.90;;
5795;SDS011;2924;51.458;7.046;2023-02-28T12:21:04;0.70;;;0.70;;
5795;SDS011;2924;51.458;7.046;2023-02-28T12:23:52;5.80;;;1.17;;
5795;SDS011;2924;51.458;7.046;2023-02-28T12:29:05;1.13;;;0.93;;
5795;SDS011;2924;51.458;7.046;2023-02-28T12:31:51;2.10;;;0.93;;
5795;SDS011;2924;51.458;7.046;2023-02-28T12:34:31;10.90;;;0.87;;
5795;SDS011;2924;51.458;7.046;2023-02-28T12:37:01;1.30;;;1.20;;
5795;SDS011;2924;51.458;7.046;2023-02-28T12:39:34;2.33;;;1.23;;
5795;SDS011;2924;51.458;7.046;2023-02-28T12:42:09;1.83;;;1.10;;
5795;SDS011;2924;51.458;7.046;2023-02-28T12:45:25;2.40;;;1.57;;
5795;SDS011;2924;51.458;7.046;2023-02-28T12:47:35;1.47;;;1.07;;
5795;SDS011;2924;51.458;7.046;2023-02-28T12:50:06;0.97;;;0.97;;
5795;SDS011;2924;51.458;7.046;2023-02-28T12:55:35;1.20;;;1.10;;
5795;SDS011;2924;51.458;7.046;2023-02-28T13:01:04;3.03;;;1.10;;
5795;SDS011;2924;51.458;7.046;2023-02-28T13:09:19;3.47;;;1.20;;
5795;SDS011;2924;51.458;7.046;2023-02-28T13:11:49;1.50;;;1.40;;
5795;SDS011;2924;51.458;7.046;2023-02-28T13:22:41;1.17;;;0.90;;
5795;SDS011;2924;51.458;7.046;2023-02-28T13:28:03;3.20;;;1.30;;
5795;SDS011;2924;51.458;7.046;2023-02-28T13:33:23;1.07;;;0.93;;
5795;SDS011;2924;51.458;7.046;2023-02-28T13:38:46;1.50;;;1.40;;
5795;SDS011;2924;51.458;7.046;2023-02-28T13:47:22;1.63;;;1.53;;
5795;SDS011;2924;51.458;7.046;2023-02-28T13:51:51;3.47;;;1.63;;
5795;SDS011;2924;51.458;7.046;2023-02-28T13:59:47;1.60;;;1.50;;
5795;SDS011;2924;51.458;7.046;2023-02-28T14:02:30;2.47;;;1.77;;
5795;SDS011;2924;51.458;7.046;2023-02-28T14:05:01;1.30;;;1.00;;
5795;SDS011;2924;51.458;7.046;2023-02-28T14:07:29;2.37;;;1.40;;
5795;SDS011;2924;51.458;7.046;2023-02-28T14:10:15;5.80;;;1.50;;
5795;SDS011;2924;51.458;7.046;2023-02-28T14:12:53;1.50;;;1.40;;
5795;SDS011;2924;51.458;7.046;2023-02-28T14:18:28;3.23;;;1.53;;
5795;SDS011;2924;51.458;7.046;2023-02-28T14:34:37;1.93;;;1.60;;
5795;SDS011;2924;51.458;7.046;2023-02-28T14:37:11;2.17;;;1.97;;
5795;SDS011;2924;51.458;7.046;2023-02-28T14:39:41;1.90;;;1.30;;
5795;SDS011;2924;51.458;7.046;2023-02-28T14:45:20;1.47;;;1.37;;
5795;SDS011;2924;51.458;7.046;2023-02-28T14:47:47;1.70;;;1.60;;
5795;SDS011;2924;51.458;7.046;2023-02-28T14:50:18;2.33;;;1.50;;
5795;SDS011;2924;51.458;7.046;2023-02-28T14:52:46;1.60;;;1.50;;
5795;SDS011;2924;51.458;7.046;2023-02-28T14:55:17;1.27;;;1.17;;
5795;SDS011;2924;51.458;7.046;2023-02-28T14:57:58;1.30;;;1.20;;
5795;SDS011;2924;51.458;7.046;2023-02-28T15:00:46;1.93;;;1.63;;
5795;SDS011;2924;51.458;7.046;2023-02-28T15:03:18;2.20;;;1.87;;
5795;SDS011;2924;51.458;7.046;2023-02-28T15:09:06;3.60;;;1.40;;
5795;SDS011;2924;51.458;7.046;2023-02-28T15:11:38;2.27;;;2.07;;
5795;SDS011;2924;51.458;7.046;2023-02-28T15:14:05;9.63;;;4.53;;
5795;SDS011;2924;51.458;7.046;2023-02-28T15:21:39;1.80;;;1.70;;
5795;SDS011;2924;51.458;7.046;2023-02-28T15:24:18;2.03;;;1.50;;
5795;SDS011;2924;51.458;7.046;2023-02-28T15:26:59;2.13;;;1.90;;
5795;SDS011;2924;51.458;7.046;2023-02-28T15:29:30;2.00;;;1.90;;
5795;SDS011;2924;51.458;7.046;2023-02-28T15:32:03;1.50;;;1.40;;
5795;SDS011;2924;51.458;7.046;2023-02-28T15:36:59;1.57;;;1.47;;
5795;SDS011;2924;51.458;7.046;2023-02-28T15:39:26;1.53;;;1.20;;
5795;SDS011;2924;51.458;7.046;2023-02-28T15:42:09;1.50;;;1.30;;
5795;SDS011;2924;51.458;7.046;2023-02-28T15:44:41;2.43;;;1.50;;
5795;SDS011;2924;51.458;7.046;2023-02-28T15:47:14;1.63;;;1.17;;
5795;SDS011;2924;51.458;7.046;2023-02-28T15:49:51;2.43;;;1.93;;
5795;SDS011;2924;51.458;7.046;2023-02-28T15:52:39;3.27;;;1.77;;
5795;SDS011;2924;51.458;7.046;2023-02-28T15:57:43;5.07;;;2.30;;
5795;SDS011;2924;51.458;7.046;2023-02-28T16:00:11;3.60;;;2.07;;
5795;SDS011;2924;51.458;7.046;2023-02-28T16:02:40;1.93;;;1.73;;
5795;SDS011;2924;51.458;7.046;2023-02-28T16:07:32;3.33;;;1.63;;
5795;SDS011;2924;51.458;7.046;2023-02-28T16:09:59;2.90;;;1.70;;
5795;SDS011;2924;51.458;7.046;2023-02-28T16:12:26;5.03;;;1.87;;
5795;SDS011;2924;51.458;7.046;2023-02-28T16:14:55;2.20;;;1.43;;
5795;SDS011;2924;51.458;7.046;2023-02-28T16:17:24;1.70;;;1.50;;
5795;SDS011;2924;51.458;7.046;2023-02-28T16:19:52;5.23;;;1.70;;
5795;SDS011;2924;51.458;7.046;2023-02-28T16:22:18;7.40;;;1.80;;
5795;SDS011;2924;51.458;7.046;2023-02-28T16:24:44;1.47;;;1.27;;
5795;SDS011;2924;51.458;7.046;2023-02-28T16:27:43;2.10;;;1.40;;
5795;SDS011;2924;51.458;7.046;2023-02-28T16:30:03;3.23;;;1.67;;
5795;SDS011;2924;51.458;7.046;2023-02-28T16:32:30;1.80;;;1.70;;
5795;SDS011;2924;51.458;7.046;2023-02-28T16:34:59;2.57;;;1.70;;
5795;SDS011;2924;51.458;7.046;2023-02-28T16:37:26;3.23;;;1.83;;
5795;SDS011;2924;51.458;7.046;2023-02-28T16:39:52;1.70;;;1.60;;
5795;SDS011;2924;51.458;7.046;2023-02-28T16:42:22;1.93;;;1.50;;
5795;SDS011;2924;51.458;7.046;2023-02-28T16:44:50;1.93;;;1.60;;
5795;SDS011;2924;51.458;7.046;2023-02-28T16:47:17;2.50;;;2.13;;
5795;SDS011;2924;51.458;7.046;2023-02-28T16:49:43;1.80;;;1.70;;
5795;SDS011;2924;51.458;7.046;2023-02-28T16:52:09;1.83;;;1.73;;
5795;SDS011;2924;51.458;7.046;2023-02-28T16:54:36;2.17;;;1.60;;
5795;SDS011;2924;51.458;7.046;2023-02-28T16:57:03;1.67;;;1.57;;
5795;SDS011;2924;51.458;7.046;2023-02-28T16:59:29;3.00;;;1.67;;
5795;SDS011;2924;51.458;7.046;2023-02-28T17:01:55;2.27;;;1.80;;
5795;SDS011;2924;51.458;7.046;2023-02-28T17:04:27;3.37;;;1.57;;
5795;SDS011;2924;51.458;7.046;2023-02-28T17:06:53;1.73;;;1.63;;
5795;SDS011;2924;51.458;7.046;2023-02-28T17:09:20;1.77;;;1.20;;
5795;SDS011;2924;51.458;7.046;2023-02-28T17:11:47;1.80;;;1.60;;
5795;SDS011;2924;51.458;7.046;2023-02-28T17:14:13;3.43;;;1.80;;
5795;SDS011;2924;51.458;7.046;2023-02-28T17:16:39;3.10;;;1.37;;
5795;SDS011;2924;51.458;7.046;2023-02-28T17:19:06;5.13;;;1.83;;
5795;SDS011;2924;51.458;7.046;2023-02-28T17:21:35;4.20;;;2.67;;
5795;SDS011;2924;51.458;7.046;2023-02-28T17:24:01;1.50;;;1.40;;
5795;SDS011;2924;51.458;7.046;2023-02-28T17:26:27;5.17;;;1.47;;
5795;SDS011;2924;51.458;7.046;2023-02-28T17:28:54;1.80;;;1.70;;
5795;SDS011;2924;51.458;7.046;2023-02-28T17:31:22;2.40;;;1.70;;
5795;SDS011;2924;51.458;7.046;2023-02-28T17:33:51;3.23;;;2.27;;
5795;SDS011;2924;51.458;7.046;2023-02-28T17:36:21;1.23;;;1.23;;
5795;SDS011;2924;51.458;7.046;2023-02-28T17:38:49;2.93;;;2.10;;
5795;SDS011;2924;51.458;7.046;2023-02-28T17:41:16;2.33;;;1.73;;
5795;SDS011;2924;51.458;7.046;2023-02-28T17:43:42;4.23;;;1.83;;
5795;SDS011;2924;51.458;7.046;2023-02-28T17:46:14;2.10;;;1.97;;
5795;SDS011;2924;51.458;7.046;2023-02-28T17:48:43;1.97;;;1.60;;
5795;SDS011;2924;51.458;7.046;2023-02-28T17:51:11;2.60;;;1.57;;
5795;SDS011;2924;51.458;7.046;2023-02-28T17:53:38;2.27;;;1.50;;
5795;SDS011;2924;51.458;7.046;2023-02-28T17:56:05;5.50;;;2.13;;
5795;SDS011;2924;51.458;7.046;2023-02-28T17:58:35;5.07;;;3.30;;
5795;SDS011;2924;51.458;7.046;2023-02-28T18:01:01;4.07;;;2.30;;
5795;SDS011;2924;51.458;7.046;2023-02-28T18:03:27;3.10;;;2.77;;
5795;SDS011;2924;51.458;7.046;2023-02-28T18:05:53;7.13;;;3.27;;
5795;SDS011;2924;51.458;7.046;2023-02-28T18:08:19;3.97;;;2.10;;
5795;SDS011;2924;51.458;7.046;2023-02-28T18:10:44;1.80;;;1.70;;
5795;SDS011;2924;51.458;7.046;2023-02-28T18:13:10;2.67;;;2.43;;
5795;SDS011;2924;51.458;7.046;2023-02-28T18:15:37;3.70;;;1.90;;
5795;SDS011;2924;51.458;7.046;2023-02-28T18:18:03;5.03;;;2.47;;
5795;SDS011;2924;51.458;7.046;2023-02-28T18:20:31;3.00;;;2.53;;
5795;SDS011;2924;51.458;7.046;2023-02-28T18:22:58;1.93;;;1.70;;
5795;SDS011;2924;51.458;7.046;2023-02-28T18:25:23;7.60;;;2.20;;
5795;SDS011;2924;51.458;7.046;2023-02-28T18:27:50;2.43;;;2.30;;
5795;SDS011;2924;51.458;7.046;2023-02-28T18:30:22;7.73;;;2.63;;